Time;durP1;ratioP1;P1;durP2;ratioP2;P2;SDS_P1;SDS_P2;PMS_P1;PMS_P2;Temp;Humidity;BMP_temperature;BMP_pressure;BME280_temperature;BME280_humidity;BME280_pressure;Samples;Min_cycle;Max_cycle;Signal;HPM_P1;HPM_P2
2023/11/29 00:01:33;;;;;;;14.8;8.8;;;;;;;-2.06;84.25;;;;;
2023/11/29 00:12:32;;;;;;;14.8;8.8;;;;;;;-2.08;84.3;;;;;
2023/11/29 00:22:32;;;;;;;14.8;8.8;;;;;;;-2.19;84.24;;;;;
2023/11/29 00:33:32;;;;;;;14.6;8.1;;;;;;;-2.32;83.68;;;;;
2023/11/29 00:44:32;;;;;;;14.6;8.1;;;;;;;-2.22;83.11;;;;;
2023/11/29 00:55:32;;;;;;;20.4;8.7;;;;;;;-2.26;83.68;;;;;
2023/11/29 01:05:32;;;;;;;20.4;8.7;;;;;;;-2.35;83.21;;;;;
2023/11/29 01:16:32;;;;;;;20.4;8.7;;;;;;;-2.29;82.2;;;;;
2023/11/29 01:26:32;;;;;;;15.7;8.9;;;;;;;-2.26;81.99;;;;;
2023/11/29 01:37:34;;;;;;;15.7;8.9;;;;;;;-2.42;82.67;;;;;
2023/11/29 01:47:34;;;;;;;15.7;8.9;;;;;;;-2.48;82.62;;;;;
2023/11/29 01:57:32;;;;;;;19;10.3;;;;;;;-2.46;82.46;;;;;
2023/11/29 02:08:32;;;;;;;19;10.3;;;;;;;-2.6;82.52;;;;;
2023/11/29 02:19:32;;;;;;;19;10.3;;;;;;;-2.71;82.74;;;;;
2023/11/29 02:30:32;;;;;;;21.4;12.8;;;;;;;-2.79;83.56;;;;;
2023/11/29 02:40:32;;;;;;;21.4;12.8;;;;;;;-2.84;83.86;;;;;
2023/11/29 02:51:32;;;;;;;21.4;12.8;;;;;;;-2.86;83.84;;;;;
2023/11/29 03:02:32;;;;;;;29.6;15.1;;;;;;;-2.92;84.01;;;;;
2023/11/29 03:12:32;;;;;;;29.6;15.1;;;;;;;-3.08;84.33;;;;;
2023/11/29 03:22:32;;;;;;;29.6;15.1;;;;;;;-3.06;84.3;;;;;
2023/11/29 03:33:32;;;;;;;28.5;15.5;;;;;;;-3.11;84.18;;;;;
2023/11/29 03:44:33;;;;;;;28.5;15.5;;;;;;;-3.14;84.18;;;;;
2023/11/29 03:54:32;;;;;;;25.7;14.5;;;;;;;-3.27;84.32;;;;;
2023/11/29 04:04:32;;;;;;;25.7;14.5;;;;;;;-3.35;84.67;;;;;
2023/11/29 04:15:32;;;;;;;25.7;14.5;;;;;;;-3.3;84.23;;;;;
2023/11/29 04:25:32;;;;;;;23.1;13.5;;;;;;;-3.35;84.37;;;;;
2023/11/29 04:36:32;;;;;;;23.1;13.5;;;;;;;-3.57;84.78;;;;;
2023/11/29 04:47:32;;;;;;;23.1;13.5;;;;;;;-3.51;84.99;;;;;
2023/11/29 04:58:36;;;;;;;31.6;17.4;;;;;;;-3.69;85.71;;;;;
2023/11/29 05:08:32;;;;;;;31.6;17.4;;;;;;;-3.57;85.46;;;;;
2023/11/29 05:18:32;;;;;;;31.6;17.4;;;;;;;-3.46;84.77;;;;;
2023/11/29 05:29:32;;;;;;;33.7;18.9;;;;;;;-3.67;84.17;;;;;
2023/11/29 05:40:32;;;;;;;33.7;18.9;;;;;;;-3.85;83.26;;;;;
2023/11/29 05:50:32;;;;;;;33.7;18.9;;;;;;;-3.9;83.13;;;;;
2023/11/29 06:01:32;;;;;;;26.4;15.9;;;;;;;-3.93;83.16;;;;;
2023/11/29 06:12:33;;;;;;;26.4;15.9;;;;;;;-3.89;83.14;;;;;
2023/11/29 06:22:32;;;;;;;29.9;15.9;;;;;;;-3.96;83.47;;;;;
2023/11/29 06:32:32;;;;;;;29.9;15.9;;;;;;;-3.88;82.99;;;;;
2023/11/29 06:43:32;;;;;;;29.9;15.9;;;;;;;-3.79;82.54;;;;;
2023/11/29 06:53:33;;;;;;;21.6;12.9;;;;;;;-3.54;82.62;;;;;
2023/11/29 07:04:32;;;;;;;21.6;12.9;;;;;;;-3.5;82.43;;;;;
2023/11/29 07:15:32;;;;;;;21.6;12.9;;;;;;;-3.45;81.1;;;;;
2023/11/29 07:26:32;;;;;;;23.9;13.3;;;;;;;-3.23;81.08;;;;;
2023/11/29 07:36:32;;;;;;;23.9;13.3;;;;;;;-3.3;80.3;;;;;
2023/11/29 07:47:32;;;;;;;23.9;13.3;;;;;;;-3.13;80.32;;;;;
2023/11/29 07:57:32;;;;;;;24;14.1;;;;;;;-3.16;80.01;;;;;
2023/11/29 08:08:33;;;;;;;24;14.1;;;;;;;-3.02;79.28;;;;;
2023/11/29 08:18:32;;;;;;;24;14.1;;;;;;;-3.01;78.53;;;;;
2023/11/29 08:28:32;;;;;;;21.9;12.2;;;;;;;-2.75;77.47;;;;;
2023/11/29 08:38:32;;;;;;;21.9;12.2;;;;;;;-2.41;77.17;;;;;
2023/11/29 08:48:32;;;;;;;21.9;12.2;;;;;;;-2.43;76.25;;;;;
2023/11/29 08:59:32;;;;;;;24.3;13.6;;;;;;;-2.18;76.37;;;;;
2023/11/29 09:09:32;;;;;;;24.3;13.6;;;;;;;-1.77;75.28;;;;;
2023/11/29 09:20:32;;;;;;;24.3;13.6;;;;;;;-2.11;74.53;;;;;
2023/11/29 09:31:32;;;;;;;22.7;12.1;;;;;;;-1.53;73.24;;;;;
2023/11/29 09:41:32;;;;;;;22.7;12.1;;;;;;;-1.49;73.26;;;;;
2023/11/29 09:51:32;;;;;;;22.7;12.1;;;;;;;-1.2;71.72;;;;;
2023/11/29 10:01:32;;;;;;;27;13.1;;;;;;;-0.92;71.19;;;;;
2023/11/29 10:12:32;;;;;;;27;13.1;;;;;;;-1.18;70.88;;;;;
2023/11/29 10:22:34;;;;;;;27.5;14.9;;;;;;;-0.49;68.8;;;;;
2023/11/29 10:33:32;;;;;;;27.5;14.9;;;;;;;-0.43;68.93;;;;;
2023/11/29 10:43:34;;;;;;;27.5;14.9;;;;;;;-0.47;69.15;;;;;
2023/11/29 10:54:32;;;;;;;25.9;15.4;;;;;;;-0.46;68.51;;;;;
2023/11/29 11:04:32;;;;;;;25.9;15.4;;;;;;;-0.28;67.78;;;;;
2023/11/29 11:14:32;;;;;;;25.9;15.4;;;;;;;-0.34;67.98;;;;;
2023/11/29 11:25:32;;;;;;;26;14.3;;;;;;;-0.43;69.04;;;;;
2023/11/29 11:36:32;;;;;;;26;14.3;;;;;;;-0.35;67.94;;;;;
2023/11/29 11:46:32;;;;;;;26;14.3;;;;;;;-0.36;68.46;;;;;
2023/11/29 11:56:32;;;;;;;25.9;14.8;;;;;;;-0.19;67.73;;;;;
2023/11/29 12:07:32;;;;;;;25.9;14.8;;;;;;;-0.02;68.28;;;;;
2023/11/29 12:18:32;;;;;;;25.9;14.8;;;;;;;0.03;67.34;;;;;
2023/11/29 12:29:32;;;;;;;28;15.2;;;;;;;-0.4;69.01;;;;;
2023/11/29 12:39:33;;;;;;;28;15.2;;;;;;;-0.39;68.84;;;;;
2023/11/29 12:50:32;;;;;;;28;15.2;;;;;;;-0.49;68.68;;;;;
2023/11/29 13:00:32;;;;;;;28.5;14.7;;;;;;;-0.36;69.04;;;;;
2023/11/29 13:10:33;;;;;;;28.5;14.7;;;;;;;-0.69;68.92;;;;;
2023/11/29 13:20:32;;;;;;;28.5;14.7;;;;;;;-0.92;69.43;;;;;
2023/11/29 13:31:32;;;;;;;26.9;15.4;;;;;;;-0.9;69.68;;;;;
2023/11/29 13:42:32;;;;;;;26.9;15.4;;;;;;;-1.24;70.46;;;;;
2023/11/29 13:52:32;;;;;;;22.5;13.7;;;;;;;-1.62;70.86;;;;;
2023/11/29 14:02:32;;;;;;;22.5;13.7;;;;;;;-2.09;71.7;;;;;
2023/11/29 14:12:32;;;;;;;22.5;13.7;;;;;;;-2.52;72.05;;;;;
2023/11/29 14:23:32;;;;;;;27.7;14.9;;;;;;;-3.05;72.89;;;;;
2023/11/29 14:34:32;;;;;;;27.7;14.9;;;;;;;-3.59;74.17;;;;;
2023/11/29 14:44:32;;;;;;;27.7;14.9;;;;;;;-4.12;74.92;;;;;
2023/11/29 14:54:32;;;;;;;21.6;11.2;;;;;;;-4.58;75.73;;;;;
2023/11/29 15:05:32;;;;;;;21.6;11.2;;;;;;;-5.05;78.57;;;;;
2023/11/29 15:16:32;;;;;;;21.6;11.2;;;;;;;-5.27;79.51;;;;;
2023/11/29 15:27:32;;;;;;;27.9;15.1;;;;;;;-5.45;80.79;;;;;
2023/11/29 15:37:32;;;;;;;27.9;15.1;;;;;;;-5.61;81.21;;;;;
2023/11/29 15:48:32;;;;;;;27.9;15.1;;;;;;;-5.72;81.56;;;;;
2023/11/29 15:58:32;;;;;;;21.9;14.2;;;;;;;-5.8;81.87;;;;;
2023/11/29 16:09:32;;;;;;;21.9;14.2;;;;;;;-5.91;82.1;;;;;
2023/11/29 16:19:32;;;;;;;21.9;14.2;;;;;;;-5.98;82.46;;;;;
2023/11/29 16:29:32;;;;;;;27.2;17.1;;;;;;;-6.04;82.91;;;;;
2023/11/29 16:40:32;;;;;;;27.2;17.1;;;;;;;-6.04;82.64;;;;;
2023/11/29 19:06:00;;;;;;;21.4;14.6;;;;;;;-7.61;88.87;;;;;
2023/11/29 19:17:00;;;;;;;21.4;14.6;;;;;;;-7.07;88.09;;;;;
2023/11/29 19:27:00;;;;;;;35.3;20.7;;;;;;;-6.66;87.88;;;;;
2023/11/29 19:37:00;;;;;;;35.3;20.7;;;;;;;-6.11;86.65;;;;;
2023/11/29 19:48:00;;;;;;;29.6;14.6;;;;;;;-6.02;85.31;;;;;
2023/11/29 19:58:00;;;;;;;29.6;14.6;;;;;;;-5.98;84.76;;;;;
2023/11/29 20:08:01;;;;;;;29.6;14.6;;;;;;;-5.69;84.56;;;;;
2023/11/29 20:19:00;;;;;;;15.1;9.8;;;;;;;-5.41;82.98;;;;;
2023/11/29 20:29:59;;;;;;;15.1;9.8;;;;;;;-5.08;81;;;;;
2023/11/29 20:40:00;;;;;;;15.1;9.8;;;;;;;-5.32;79.98;;;;;
2023/11/29 20:51:00;;;;;;;23;14.2;;;;;;;-5.62;79.26;;;;;
2023/11/29 21:02:00;;;;;;;23;14.2;;;;;;;-6.05;78.35;;;;;
2023/11/29 21:12:00;;;;;;;23;14.2;;;;;;;-6.45;77.95;;;;;
2023/11/29 21:23:00;;;;;;;36.8;21.6;;;;;;;-6.71;79.1;;;;;
2023/11/29 21:33:00;;;;;;;36.8;21.6;;;;;;;-6.58;80.58;;;;;
2023/11/29 21:43:00;;;;;;;36.8;21.6;;;;;;;-5.86;82.83;;;;;
2023/11/29 21:54:00;;;;;;;27.1;14.7;;;;;;;-5.15;81.56;;;;;
2023/11/29 22:05:00;;;;;;;27.1;14.7;;;;;;;-4.81;80.83;;;;;
2023/11/29 22:16:00;;;;;;;27.1;14.7;;;;;;;-4.44;80.55;;;;;
2023/11/29 22:26:00;;;;;;;20.4;10.2;;;;;;;-4.21;80.22;;;;;
2023/11/29 22:37:00;;;;;;;20.4;10.2;;;;;;;-4.02;79.91;;;;;
2023/11/29 22:47:00;;;;;;;12.9;7.5;;;;;;;-3.94;80.07;;;;;
2023/11/29 22:57:00;;;;;;;12.9;7.5;;;;;;;-3.86;79.83;;;;;
2023/11/29 23:08:00;;;;;;;12.9;7.5;;;;;;;-3.79;79.54;;;;;
2023/11/29 23:19:00;;;;;;;16.7;7.8;;;;;;;-3.75;78.82;;;;;
2023/11/29 23:29:00;;;;;;;16.7;7.8;;;;;;;-3.98;78.65;;;;;
2023/11/29 23:40:00;;;;;;;16.7;7.8;;;;;;;-3.9;79.36;;;;;
2023/11/29 23:51:00;;;;;;;10.7;5.5;;;;;;;-3.61;79.7;;;;;
